createdAt,value
2022-11-05T00:00:38.259Z,27.70
2022-11-05T00:03:43.153Z,26.30
2022-11-05T00:06:45.239Z,26.80
2022-11-05T00:09:30.206Z,26.80
2022-11-05T00:12:32.257Z,28.40
2022-11-05T00:15:33.001Z,26.40
2022-11-05T00:18:14.733Z,25.00
2022-11-05T00:20:56.948Z,22.20
2022-11-05T00:24:14.377Z,27.10
2022-11-05T00:26:56.171Z,27.90
2022-11-05T00:29:38.068Z,26.40
2022-11-05T00:32:19.861Z,24.60
2022-11-05T00:35:01.653Z,26.70
2022-11-05T00:37:49.687Z,27.00
2022-11-05T00:40:32.103Z,27.50
2022-11-05T00:43:32.531Z,27.70
2022-11-05T00:46:14.323Z,25.50
2022-11-05T00:49:14.461Z,26.30
2022-11-05T00:52:15.595Z,24.50
2022-11-05T00:54:57.387Z,26.60
2022-11-05T00:57:39.181Z,26.10
2022-11-05T01:00:22.214Z,26.40
2022-11-05T01:03:07.624Z,27.80
2022-11-05T01:05:53.879Z,26.30
2022-11-05T01:08:36.081Z,28.40
2022-11-05T01:11:37.117Z,26.30
2022-11-05T01:14:19.431Z,27.20
2022-11-05T01:17:01.327Z,28.00
2022-11-05T01:19:43.121Z,26.30
2022-11-05T01:22:25.015Z,28.00
2022-11-05T01:25:07.833Z,26.40
2022-11-05T01:27:49.735Z,25.20
2022-11-05T01:30:31.830Z,18.30
2022-11-05T01:33:13.926Z,28.50
2022-11-05T01:35:56.339Z,28.20
2022-11-05T01:38:38.340Z,29.60
2022-11-05T01:41:20.129Z,28.10
2022-11-05T01:44:01.947Z,24.90
2022-11-05T01:46:46.127Z,22.00
2022-11-05T01:49:34.010Z,24.90
2022-11-05T01:52:15.807Z,26.40
2022-11-05T01:54:58.416Z,26.90
2022-11-05T01:57:40.893Z,24.20
2022-11-05T02:00:22.717Z,24.00
2022-11-05T02:03:04.755Z,24.60
2022-11-05T02:05:50.708Z,24.40
2022-11-05T02:08:42.843Z,14.80
2022-11-05T02:11:25.149Z,23.80
2022-11-05T02:14:07.044Z,23.80
2022-11-05T02:17:12.090Z,26.90
2022-11-05T02:20:13.131Z,21.20
2022-11-05T02:23:13.513Z,25.10
2022-11-05T02:26:33.855Z,23.70
2022-11-05T02:29:15.649Z,24.90
2022-11-05T02:32:12.900Z,25.40
2022-11-05T02:34:57.261Z,26.30
2022-11-05T02:37:45.606Z,22.50
2022-11-05T02:40:36.407Z,24.60
2022-11-05T02:43:29.772Z,22.90
2022-11-05T02:46:33.069Z,20.90
2022-11-05T02:49:41.075Z,22.50
2022-11-05T02:52:50.725Z,21.90
2022-11-05T02:55:51.667Z,20.50
2022-11-05T02:58:35.800Z,22.70
2022-11-05T03:01:17.751Z,18.60
2022-11-05T03:04:01.778Z,20.20
2022-11-05T03:07:09.765Z,18.90
2022-11-05T03:10:27.295Z,17.10
2022-11-05T03:13:28.955Z,18.40
2022-11-05T03:16:18.919Z,18.70
2022-11-05T03:19:09.233Z,17.80
2022-11-05T03:21:57.214Z,17.80
2022-11-05T03:24:46.135Z,19.00
2022-11-05T03:27:31.794Z,17.30
2022-11-05T03:30:16.283Z,15.90
2022-11-05T03:33:02.362Z,17.10
2022-11-05T03:35:48.475Z,17.60
2022-11-05T03:38:35.377Z,17.70
2022-11-05T03:41:18.599Z,17.50
2022-11-05T03:44:06.748Z,17.10
2022-11-05T03:46:50.624Z,19.90
2022-11-05T03:49:57.569Z,16.20
2022-11-05T03:52:48.066Z,17.60
2022-11-05T03:58:19.537Z,17.90
2022-11-05T04:01:02.745Z,17.10
2022-11-05T04:03:44.558Z,17.60
2022-11-05T04:06:45.042Z,20.30
2022-11-05T04:09:45.420Z,18.60
2022-11-05T04:12:45.678Z,18.00
2022-11-05T04:15:29.782Z,15.70
2022-11-05T04:18:11.585Z,15.60
2022-11-05T04:21:12.224Z,15.80
2022-11-05T04:24:10.098Z,16.90
2022-11-05T04:26:51.883Z,17.90
2022-11-05T04:29:52.109Z,15.30
2022-11-05T04:32:34.107Z,14.70
2022-11-05T04:35:16.003Z,14.70
2022-11-05T04:37:57.898Z,19.20
2022-11-05T04:40:39.690Z,133.60
2022-11-05T04:43:21.791Z,90.70
2022-11-05T04:46:04.099Z,60.20
2022-11-05T04:48:45.889Z,50.70
2022-11-05T04:51:27.787Z,42.80
2022-11-05T04:54:09.681Z,21.40
2022-11-05T04:56:51.475Z,16.10
2022-11-05T04:59:33.268Z,16.70
2022-11-05T05:02:15.378Z,19.30
2022-11-05T05:04:57.367Z,16.20
2022-11-05T05:07:39.572Z,10.40
2022-11-05T05:10:21.365Z,8.50
2022-11-05T05:13:03.156Z,8.50
2022-11-05T05:15:44.952Z,9.00
2022-11-05T05:18:27.152Z,6.60
2022-11-05T05:21:28.064Z,8.10
2022-11-05T05:24:14.189Z,7.20
2022-11-05T05:26:55.987Z,7.00
2022-11-05T05:29:37.775Z,7.20
2022-11-05T05:32:19.778Z,6.40
2022-11-05T05:35:01.574Z,6.20
2022-11-05T05:37:44.429Z,6.20
2022-11-05T05:40:26.280Z,5.70
2022-11-05T05:43:08.587Z,5.90
2022-11-05T05:45:50.583Z,6.30
2022-11-05T05:48:32.481Z,6.10
2022-11-05T05:51:14.273Z,5.10
2022-11-05T05:53:56.067Z,5.20
2022-11-05T05:56:38.065Z,5.40
2022-11-05T05:59:19.857Z,6.10
2022-11-05T06:02:02.123Z,6.30
2022-11-05T06:04:44.059Z,7.20
2022-11-05T06:07:25.853Z,5.80
2022-11-05T06:10:08.167Z,5.30
2022-11-05T06:12:50.069Z,5.40
2022-11-05T06:15:35.700Z,4.30
2022-11-05T06:18:18.144Z,4.50
2022-11-05T06:21:07.707Z,3.70
2022-11-05T06:23:50.135Z,3.70
2022-11-05T06:26:32.231Z,4.30
2022-11-05T06:29:14.024Z,10.10
2022-11-05T06:31:55.782Z,9.50
2022-11-05T06:34:37.607Z,7.00
2022-11-05T06:37:19.400Z,9.60
2022-11-05T06:40:01.475Z,10.60
2022-11-05T06:42:43.298Z,9.60
2022-11-05T06:45:25.090Z,7.10
2022-11-05T06:48:06.889Z,25.10
2022-11-05T06:50:49.084Z,46.10
2022-11-05T06:53:31.388Z,34.00
2022-11-05T06:56:13.182Z,13.60
2022-11-05T06:58:54.978Z,6.50
2022-11-05T07:01:37.743Z,6.90
2022-11-05T07:04:19.791Z,40.30
2022-11-05T07:07:01.585Z,42.90
2022-11-05T07:09:43.481Z,10.00
2022-11-05T07:12:25.274Z,9.50
2022-11-05T07:15:08.092Z,6.80
2022-11-05T07:17:49.987Z,12.60
2022-11-05T07:20:34.238Z,15.80
2022-11-05T07:23:16.849Z,32.30
2022-11-05T07:26:00.179Z,13.40
2022-11-05T07:28:41.929Z,14.30
2022-11-05T07:31:23.768Z,10.30
2022-11-05T07:34:05.559Z,7.10
2022-11-05T07:36:47.352Z,8.80
2022-11-05T07:39:29.147Z,8.30
2022-11-05T07:42:14.114Z,5.80
2022-11-05T07:44:56.112Z,5.30
2022-11-05T07:47:39.853Z,8.30
2022-11-05T07:50:23.587Z,12.50
2022-11-05T07:53:12.219Z,11.00
2022-11-05T07:55:54.449Z,13.70
2022-11-05T07:58:37.441Z,9.20
2022-11-05T08:01:19.542Z,8.50
2022-11-05T08:04:01.569Z,8.50
2022-11-05T08:06:43.372Z,11.10
2022-11-05T08:09:25.154Z,9.10
2022-11-05T08:12:07.408Z,7.40
2022-11-05T08:14:49.253Z,5.10
2022-11-05T08:17:31.048Z,4.70
2022-11-05T08:20:14.461Z,4.10
2022-11-05T08:22:57.071Z,5.80
2022-11-05T08:25:39.982Z,5.10
2022-11-05T08:28:22.828Z,7.20
2022-11-05T08:31:04.687Z,6.00
2022-11-05T08:33:46.515Z,6.70
2022-11-05T08:36:28.309Z,8.40
2022-11-05T08:39:15.821Z,7.10
2022-11-05T08:41:58.756Z,8.60
2022-11-05T08:44:40.551Z,8.80
2022-11-05T08:47:22.446Z,10.80
2022-11-05T08:50:04.342Z,8.90
2022-11-05T08:52:46.110Z,7.40
2022-11-05T08:55:28.749Z,19.00
2022-11-05T08:58:15.321Z,14.60
2022-11-05T09:01:03.466Z,10.10
2022-11-05T09:03:47.235Z,9.70
2022-11-05T09:07:07.423Z,8.40
2022-11-05T09:09:49.736Z,8.70
2022-11-05T09:12:31.630Z,8.60
2022-11-05T09:15:13.423Z,8.60
2022-11-05T09:17:55.319Z,8.20
2022-11-05T09:20:37.214Z,9.00
2022-11-05T09:23:19.009Z,8.80
2022-11-05T09:26:00.902Z,8.40
2022-11-05T09:28:43.822Z,8.40
2022-11-05T09:31:25.615Z,8.80
2022-11-05T09:34:07.409Z,7.60
2022-11-05T09:36:49.305Z,8.90
2022-11-05T09:39:31.099Z,8.50
2022-11-05T09:42:17.602Z,9.10
2022-11-05T09:45:08.509Z,13.20
2022-11-05T09:47:57.003Z,9.80
2022-11-05T09:50:42.746Z,13.40
2022-11-05T09:53:25.258Z,13.50
2022-11-05T09:56:19.234Z,14.80
2022-11-05T09:59:17.721Z,10.10
2022-11-05T10:02:19.939Z,10.50
2022-11-05T10:05:10.215Z,12.30
2022-11-05T10:08:11.227Z,10.60
2022-11-05T10:13:47.032Z,10.10
2022-11-05T10:16:36.370Z,9.00
2022-11-05T10:19:24.676Z,10.20
2022-11-05T10:22:13.781Z,9.70
2022-11-05T10:24:56.156Z,9.90
2022-11-05T10:27:38.495Z,9.90
2022-11-05T10:30:21.005Z,10.00
2022-11-05T10:33:06.484Z,9.60
2022-11-05T10:35:52.010Z,16.00
2022-11-05T10:38:34.271Z,14.10
2022-11-05T10:41:35.006Z,11.50
2022-11-05T10:44:54.691Z,21.30
2022-11-05T10:48:01.570Z,28.40
2022-11-05T10:50:44.430Z,36.10
2022-11-05T10:53:31.300Z,16.70
2022-11-05T10:56:39.968Z,18.10
2022-11-05T10:59:29.965Z,21.60
2022-11-05T11:02:28.377Z,13.80
2022-11-05T11:05:30.669Z,106.90
2022-11-05T11:08:12.363Z,49.50
2022-11-05T11:11:05.398Z,40.50
2022-11-05T11:14:10.252Z,35.90
2022-11-05T11:16:59.210Z,15.20
2022-11-05T11:19:41.826Z,11.50
2022-11-05T11:22:23.719Z,11.60
2022-11-05T11:25:26.209Z,11.00
2022-11-05T11:28:18.027Z,9.20
2022-11-05T11:31:13.644Z,10.20
2022-11-05T11:34:08.443Z,8.10
2022-11-05T11:36:54.332Z,11.20
2022-11-05T11:39:38.766Z,9.90
2022-11-05T11:42:30.206Z,8.50
2022-11-05T11:45:31.204Z,9.70
2022-11-05T11:48:28.914Z,8.80
2022-11-05T11:51:49.745Z,12.10
2022-11-05T11:54:34.383Z,14.10
2022-11-05T11:57:31.455Z,14.60
2022-11-05T12:00:14.558Z,12.10
2022-11-05T12:03:15.950Z,11.80
2022-11-05T12:06:34.309Z,21.30
2022-11-05T12:09:37.048Z,11.20
2022-11-05T12:12:28.363Z,21.40
2022-11-05T12:15:10.158Z,14.70
2022-11-05T12:18:03.317Z,14.70
2022-11-05T12:21:05.492Z,9.40
2022-11-05T12:24:14.622Z,13.80
2022-11-05T12:27:41.603Z,9.70
2022-11-05T12:30:24.007Z,9.00
2022-11-05T12:33:36.374Z,9.50
2022-11-05T12:36:52.340Z,10.00
2022-11-05T12:39:48.840Z,7.90
2022-11-05T12:42:43.657Z,7.70
2022-11-05T12:45:43.501Z,6.50
2022-11-05T12:48:52.602Z,6.70
2022-11-05T12:52:16.275Z,6.30
2022-11-05T12:55:25.334Z,5.90
2022-11-05T12:58:16.051Z,6.80
2022-11-05T13:01:10.507Z,6.70
2022-11-05T13:04:07.283Z,7.00
2022-11-05T13:06:54.986Z,6.70
2022-11-05T13:09:52.890Z,5.80
2022-11-05T13:12:54.430Z,8.50
2022-11-05T13:19:08.993Z,5.80
2022-11-05T13:22:09.166Z,5.10
2022-11-05T13:25:15.770Z,4.80
2022-11-05T13:28:40.356Z,5.00
2022-11-05T13:31:39.283Z,5.40
2022-11-05T13:34:25.465Z,4.90
2022-11-05T13:37:29.296Z,4.80
2022-11-05T13:40:15.315Z,4.80
2022-11-05T13:43:04.023Z,4.70
2022-11-05T13:46:12.149Z,5.70
2022-11-05T13:49:16.934Z,6.10
2022-11-05T13:52:40.247Z,7.30
2022-11-05T13:55:48.733Z,5.30
2022-11-05T13:58:30.527Z,5.50
2022-11-05T14:01:43.887Z,5.20
2022-11-05T14:04:41.522Z,5.80
2022-11-05T14:07:45.880Z,5.90
2022-11-05T14:10:41.686Z,6.10
2022-11-05T14:13:47.185Z,5.60
2022-11-05T14:16:48.780Z,6.00
2022-11-05T14:19:35.688Z,6.50
2022-11-05T14:22:32.961Z,6.00
2022-11-05T14:25:18.013Z,5.40
2022-11-05T14:27:59.807Z,5.40
2022-11-05T14:30:45.053Z,5.70
2022-11-05T14:33:26.877Z,6.40
2022-11-05T14:36:30.230Z,5.00
2022-11-05T14:39:32.798Z,16.20
2022-11-05T14:42:15.379Z,12.10
2022-11-05T14:45:26.401Z,42.40
2022-11-05T14:48:40.423Z,12.30
2022-11-05T14:51:33.681Z,8.10
2022-11-05T14:54:41.896Z,7.80
2022-11-05T14:57:59.039Z,6.70
2022-11-05T15:00:50.603Z,6.40
2022-11-05T15:03:48.161Z,6.00
2022-11-05T15:06:36.326Z,7.00
2022-11-05T15:09:34.260Z,8.30
2022-11-05T15:12:38.865Z,5.40
2022-11-05T15:15:28.648Z,5.50
2022-11-05T15:18:48.464Z,5.20
2022-11-05T15:21:37.074Z,4.60
2022-11-05T15:24:21.928Z,7.10
2022-11-05T15:27:22.314Z,9.70
2022-11-05T15:30:28.166Z,9.40
2022-11-05T15:33:21.609Z,9.10
2022-11-05T15:36:25.363Z,9.00
2022-11-05T15:39:29.311Z,13.50
2022-11-05T15:42:19.373Z,12.50
2022-11-05T15:45:01.264Z,11.30
2022-11-05T15:47:46.638Z,15.00
2022-11-05T15:50:29.045Z,14.60
2022-11-05T15:53:47.427Z,18.70
2022-11-05T15:56:30.314Z,17.20
2022-11-05T15:59:18.320Z,14.40
2022-11-05T16:02:22.467Z,13.10
2022-11-05T16:05:12.354Z,12.90
2022-11-05T16:07:54.564Z,12.20
2022-11-05T16:10:39.022Z,8.80
2022-11-05T16:13:21.727Z,10.30
2022-11-05T16:16:07.328Z,8.90
2022-11-05T16:18:49.206Z,10.10
2022-11-05T16:21:31.286Z,10.30
2022-11-05T16:24:29.062Z,9.90
2022-11-05T16:27:20.130Z,9.40
2022-11-05T16:32:43.876Z,8.70
2022-11-05T16:35:25.975Z,8.70
2022-11-05T16:38:12.043Z,8.40
2022-11-05T16:40:54.069Z,8.60
2022-11-05T16:43:35.862Z,9.10
2022-11-05T16:46:17.756Z,12.50
2022-11-05T16:48:59.548Z,12.60
2022-11-05T16:51:41.659Z,12.90
2022-11-05T16:54:23.445Z,15.70
2022-11-05T16:57:07.117Z,15.10
2022-11-05T16:59:49.180Z,17.60
2022-11-05T17:02:31.395Z,30.00
2022-11-05T17:05:31.089Z,68.10
2022-11-05T17:08:13.001Z,155.20
2022-11-05T17:10:54.990Z,175.40
2022-11-05T17:13:36.784Z,121.30
2022-11-05T17:16:18.678Z,82.70
2022-11-05T17:19:00.632Z,72.20
2022-11-05T17:21:42.679Z,57.10
2022-11-05T17:24:24.572Z,77.70
2022-11-05T17:27:06.776Z,121.20
2022-11-05T17:29:49.898Z,162.50
2022-11-05T17:32:31.709Z,179.50
2022-11-05T17:35:14.613Z,152.70
2022-11-05T17:37:56.814Z,123.60
2022-11-05T17:40:39.671Z,121.00
2022-11-05T17:43:21.835Z,120.40
2022-11-05T17:46:08.542Z,120.60
2022-11-05T17:48:52.265Z,150.50
2022-11-05T17:51:34.997Z,143.20
2022-11-05T17:54:16.792Z,124.10
2022-11-05T17:56:58.583Z,109.50
2022-11-05T17:59:42.324Z,79.40
2022-11-05T18:02:25.197Z,59.00
2022-11-05T18:05:08.777Z,75.90
2022-11-05T18:07:50.982Z,85.10
2022-11-05T18:10:33.703Z,83.60
2022-11-05T18:13:15.923Z,91.30
2022-11-05T18:15:57.911Z,77.10
2022-11-05T18:18:39.794Z,66.90
2022-11-05T18:21:21.687Z,76.00
2022-11-05T18:24:07.061Z,93.60
2022-11-05T18:26:49.473Z,73.90
2022-11-05T18:29:31.366Z,67.10
2022-11-05T18:32:13.163Z,61.80
2022-11-05T18:34:57.206Z,62.30
2022-11-05T18:37:39.411Z,73.40
2022-11-05T18:40:21.614Z,78.20
2022-11-05T18:43:03.817Z,71.70
2022-11-05T18:45:45.711Z,67.70
2022-11-05T18:48:28.774Z,52.10
2022-11-05T18:51:15.901Z,62.50
2022-11-05T18:53:57.851Z,58.00
2022-11-05T18:56:45.840Z,53.60
2022-11-05T18:59:37.768Z,62.70
2022-11-05T19:02:21.907Z,59.30
2022-11-05T19:05:27.986Z,58.30
2022-11-05T19:08:13.416Z,55.20
2022-11-05T19:10:57.662Z,49.30
2022-11-05T19:13:40.721Z,46.70
2022-11-05T19:16:26.349Z,47.50
2022-11-05T19:19:10.406Z,52.90
2022-11-05T19:21:53.847Z,53.10
2022-11-05T19:24:38.839Z,50.20
2022-11-05T19:27:27.898Z,51.30
2022-11-05T19:30:10.615Z,47.50
2022-11-05T19:32:52.694Z,44.20
2022-11-05T19:35:40.905Z,55.00
2022-11-05T19:38:24.163Z,61.20
2022-11-05T19:41:12.196Z,57.70
2022-11-05T19:43:55.224Z,59.30
2022-11-05T19:46:37.325Z,51.20
2022-11-05T19:49:19.220Z,55.70
2022-11-05T19:52:01.321Z,51.40
2022-11-05T19:54:46.468Z,52.20
2022-11-05T19:57:29.895Z,53.70
2022-11-05T20:00:12.642Z,56.10
2022-11-05T20:02:55.671Z,50.40
2022-11-05T20:05:42.474Z,50.00
2022-11-05T20:08:24.268Z,45.70
2022-11-05T20:11:06.981Z,45.70
2022-11-05T20:13:52.666Z,38.30
2022-11-05T20:16:40.500Z,42.40
2022-11-05T20:19:23.115Z,43.50
2022-11-05T20:22:05.623Z,46.50
2022-11-05T20:24:47.416Z,50.40
2022-11-05T20:27:30.439Z,58.90
2022-11-05T20:30:15.099Z,60.70
2022-11-05T20:33:00.532Z,49.80
2022-11-05T20:35:43.603Z,50.60
2022-11-05T20:38:25.598Z,52.50
2022-11-05T20:41:09.850Z,55.70
2022-11-05T20:43:52.260Z,60.30
2022-11-05T20:46:34.870Z,61.60
2022-11-05T20:49:21.281Z,59.50
2022-11-05T20:52:07.160Z,50.80
2022-11-05T20:54:49.259Z,52.70
2022-11-05T20:57:31.361Z,54.70
2022-11-05T21:00:15.630Z,53.60
2022-11-05T21:02:58.956Z,56.70
2022-11-05T21:05:49.238Z,59.60
2022-11-05T21:08:32.462Z,60.00
2022-11-05T21:11:14.666Z,60.90
2022-11-05T21:13:56.456Z,47.20
2022-11-05T21:16:38.353Z,57.40
2022-11-05T21:19:27.056Z,58.50
2022-11-05T21:22:09.312Z,56.20
2022-11-05T21:24:51.311Z,46.30
2022-11-05T21:27:34.354Z,58.70
2022-11-05T21:30:16.742Z,59.50
2022-11-05T21:32:58.643Z,56.80
2022-11-05T21:35:44.224Z,53.20
2022-11-05T21:38:27.243Z,50.50
2022-11-05T21:41:11.699Z,52.60
2022-11-05T21:43:53.491Z,52.00
2022-11-05T21:46:35.385Z,56.50
2022-11-05T21:49:19.025Z,59.00
2022-11-05T21:52:19.656Z,54.00
2022-11-05T21:58:30.859Z,47.80
2022-11-05T22:01:13.465Z,46.10
2022-11-05T22:04:00.309Z,43.50
2022-11-05T22:06:44.740Z,43.90
2022-11-05T22:09:27.445Z,46.40
2022-11-05T22:12:09.963Z,42.40
2022-11-05T22:14:52.679Z,38.00
2022-11-05T22:17:34.573Z,33.60
2022-11-05T22:20:17.085Z,31.70
2022-11-05T22:22:58.853Z,35.00
2022-11-05T22:25:40.773Z,34.60
2022-11-05T22:28:22.586Z,35.10
2022-11-05T22:31:04.362Z,30.80
2022-11-05T22:33:46.665Z,31.80
2022-11-05T22:36:28.458Z,34.10
2022-11-05T22:39:12.065Z,32.80
2022-11-05T22:41:58.266Z,32.80
2022-11-05T22:44:40.391Z,32.80
2022-11-05T22:47:22.106Z,31.30
2022-11-05T22:50:05.332Z,29.50
2022-11-05T22:52:47.124Z,30.50
2022-11-05T22:55:28.907Z,24.70
2022-11-05T22:58:10.956Z,30.50
2022-11-05T23:00:52.995Z,28.90
2022-11-05T23:03:35.384Z,29.50
2022-11-05T23:06:41.515Z,30.00
2022-11-05T23:09:47.697Z,28.40
2022-11-05T23:12:37.821Z,32.60
2022-11-05T23:15:38.353Z,30.30
2022-11-05T23:18:38.782Z,31.60
2022-11-05T23:21:39.318Z,28.90
2022-11-05T23:24:21.110Z,26.10
2022-11-05T23:27:03.005Z,27.50
2022-11-05T23:29:44.797Z,28.90
2022-11-05T23:32:29.705Z,29.20
2022-11-05T23:35:12.183Z,28.60
2022-11-05T23:38:12.682Z,30.00
2022-11-05T23:41:13.758Z,31.60
2022-11-05T23:47:14.413Z,26.80
2022-11-05T23:49:56.199Z,26.40
2022-11-05T23:52:37.993Z,31.60
2022-11-05T23:55:21.219Z,34.20
2022-11-05T23:58:03.430Z,36.80
